Latest Weather Observations for Melbourne (Olympic Park)

IDV60901

Issued at 3:11 pm EDT Sunday 5 December 2021 (issued every 10 minutes, with the page automatically refreshed every 10 minutes)

About weather observations | Map of Melbourne area stations | Latest observations for Melbourne area | Other Formats
Station Details ID: 086338 Name: MELBOURNE (OLYMPIC PARK) Lat: -37.83 Lon: 144.98 Height: 7.53 m
Data from the previous 72 hours. | See also: Recent months at Melbourne (Olympic Park)
Date/Time
EDT
Temp
°C
App
Temp
°C
Dew
Point
°C
Rel
Hum
%
Delta-T
°C
Wind Press
QNH
hPa
Press
MSL
hPa
Rain since
9am
mm
Dir  Spd
km/h
Gust
km/h
Spd
kts
Gust
kts
05/03:00pm 18.0 15.0 9.1 56 4.6 SSW 15 26 8 14 1018.9 1018.9 0.0
05/02:30pm 18.0 15.1 8.3 53 5.0 SSW 13 22 7 12 1019.3 1019.3 0.0
05/02:00pm 18.2 14.6 8.2 52 5.1 SSW 17 26 9 14 1019.4 1019.4 0.0
05/01:30pm 18.8 16.0 8.7 52 5.2 SSW 13 26 7 14 1019.7 1019.7 0.0
05/01:00pm 17.8 14.2 6.7 48 5.5 SSW 15 24 8 13 1019.9 1019.9 0.0
05/12:30pm 18.4 15.7 7.2 48 5.6 SSW 11 24 6 13 1020.0 1020.0 0.0
05/12:00pm 18.0 15.1 4.9 42 6.3 ESE 9 15 5 8 1020.3 1020.3 0.0
05/11:30am 18.0 15.1 4.9 42 6.3 S 9 19 5 10 1020.7 1020.7 0.0
05/11:00am 16.9 12.7 3.9 42 6.0 SSE 15 20 8 11 1021.1 1021.1 0.0
05/10:30am 17.0 14.1 4.7 44 5.8 SSE 9 17 5 9 1021.4 1021.4 0.0
05/10:00am 16.1 12.8 4.5 46 5.4 SSE 11 20 6 11 1021.7 1021.7 0.0
05/09:30am 15.4 11.6 3.9 46 5.3 SE 13 20 7 11 1021.9 1021.9 0.0
05/09:00am 14.8 10.9 3.6 47 5.1 SE 13 22 7 12 1022.2 1022.2 0.0
05/08:30am 14.7 11.3 3.8 48 5.0 SE 11 17 6 9 1022.3 1022.3 0.0
05/08:00am 14.1 11.2 4.4 52 4.4 SSE 9 15 5 8 1022.0 1022.0 0.0
05/07:30am 13.2 10.1 3.6 52 4.3 SSE 9 15 5 8 1021.9 1021.9 0.0
05/07:00am 11.9 9.5 4.2 59 3.5 S 6 9 3 5 1021.6 1021.6 0.0
05/06:30am 10.3 8.9 5.5 72 2.2 SSW 2 6 1 3 1021.5 1021.5 0.0
05/06:00am 10.3 9.2 4.9 69 2.4 CALM 0 0 0 0 1021.3 1021.3 0.0
05/05:30am 11.0 9.0 4.5 64 2.9 SSE 4 9 2 5 1021.0 1021.0 0.0
05/05:00am 11.4 8.9 4.6 63 3.1 S 7 11 4 6 1021.1 1021.1 0.0
05/04:30am 11.8 8.8 4.1 59 3.5 SE 9 13 5 7 1021.0 1021.0 0.0
05/04:00am 11.9 8.9 4.2 59 3.5 SE 9 20 5 11 1021.1 1021.1 0.0
05/03:30am 12.1 9.1 4.1 58 3.6 SE 9 19 5 10 1021.1 1021.1 0.0
05/03:00am 12.1 9.1 4.3 59 3.5 SSE 9 13 5 7 1021.3 1021.3 0.0
05/02:30am 11.9 9.3 4.4 60 3.4 SE 7 13 4 7 1021.5 1021.5 0.0
05/02:00am 12.1 9.5 4.3 59 3.5 SE 7 11 4 6 1021.7 1021.7 0.0
05/01:30am 12.1 9.8 4.6 60 3.4 SSE 6 9 3 5 1021.8 1021.8 0.0
05/01:00am 11.9 9.7 5.1 63 3.1 SSE 6 7 3 4 1021.9 1021.9 0.0
05/12:30am 12.3 9.8 4.8 60 3.4 SSE 7 13 4 7 1022.1 1022.1 0.0
05/12:00am 12.7 10.3 5.1 60 3.5 SSE 7 13 4 7 1022.3 1022.3 0.0
 
Date/Time
EDT
Temp
°C
App
Temp
°C
Dew
Point
°C
Rel
Hum
%
Delta-T
°C
Wind Press
QNH
hPa
Press
MSL
hPa
Rain since
9am
mm
Dir  Spd
km/h
Gust
km/h
Spd
kts
Gust
kts
04/11:30pm 13.1 10.3 5.0 58 3.7 SSE 9 17 5 9 1022.3 1022.3 0.0
04/11:00pm 13.5 10.4 5.4 58 3.8 SSE 11 17 6 9 1022.2 1022.2 0.0
04/10:30pm 14.1 11.4 5.5 56 4.1 SSE 9 17 5 9 1022.2 1022.2 0.0
04/10:00pm 14.4 11.3 5.5 55 4.2 S 11 19 6 10 1022.1 1022.1 0.0
04/09:30pm 14.6 11.4 4.9 52 4.5 S 11 26 6 14 1021.9 1021.9 0.0
04/09:00pm 14.8 11.3 5.6 54 4.4 S 13 28 7 15 1021.8 1021.8 0.0
04/08:30pm 15.1 11.4 6.4 56 4.2 SSE 15 26 8 14 1021.5 1021.5 0.0
04/08:00pm 15.1 11.6 7.2 59 3.9 S 15 30 8 16 1021.3 1021.3 0.0
04/07:30pm 15.5 12.2 8.0 61 3.8 SSE 15 28 8 15 1021.0 1021.0 0.0
04/07:00pm 15.8 11.8 6.8 55 4.4 SSW 17 28 9 15 1020.7 1020.7 0.0
04/06:30pm 15.8 12.4 7.6 58 4.1 S 15 30 8 16 1020.3 1020.3 0.0
04/06:00pm 16.0 13.3 9.0 63 3.6 S 13 24 7 13 1020.0 1020.0 0.0
04/05:30pm 16.2 12.9 9.6 65 3.4 S 17 30 9 16 1019.9 1019.9 0.0
04/05:00pm 16.3 12.9 9.0 62 3.7 S 17 30 9 16 1019.7 1019.7 0.0
04/04:30pm 16.5 12.9 9.9 65 3.5 SSW 19 32 10 17 1019.6 1019.6 0.0
04/04:00pm 16.9 13.9 10.5 66 3.4 S 17 32 9 17 1019.6 1019.6 0.0
04/03:30pm 17.0 13.5 10.1 64 3.6 S 19 33 10 18 1019.5 1019.5 0.0
04/03:00pm 17.3 13.9 10.4 64 3.7 S 19 30 10 16 1019.4 1019.4 0.0
04/02:30pm 18.8 16.0 11.4 62 4.0 S 17 32 9 17 1019.4 1019.4 0.0
04/02:00pm 17.7 15.6 9.6 59 4.2 SSW 11 24 6 13 1019.5 1019.5 0.0
04/01:30pm 17.5 14.4 10.4 63 3.8 SSW 17 28 9 15 1019.7 1019.7 0.0
04/01:00pm 18.0 14.7 9.6 58 4.4 S 17 26 9 14 1019.7 1019.7 0.0
04/12:30pm 17.4 14.2 8.3 55 4.7 S 15 24 8 13 1019.9 1019.9 0.0
04/12:00pm 17.5 14.9 7.8 53 4.9 SSW 11 26 6 14 1019.8 1019.8 0.0
04/11:30am 17.3 14.3 7.9 54 4.8 SSW 13 19 7 10 1019.7 1019.7 0.0
04/11:00am 17.2 14.4 8.4 56 4.5 S 13 20 7 11 1019.5 1019.5 0.0
04/10:30am 16.7 13.8 8.1 57 4.4 SSW 13 26 7 14 1019.5 1019.5 0.0
04/10:00am 16.4 13.1 7.9 57 4.3 SSW 15 24 8 13 1019.5 1019.5 0.0
04/09:30am 15.9 13.4 8.2 60 3.9 SSW 11 20 6 11 1019.6 1019.6 0.0
04/09:00am 15.1 12.7 7.2 59 3.9 WSW 9 19 5 10 1019.6 1019.6 0.0
04/08:30am 14.7 12.2 6.5 58 4.0 WSW 9 15 5 8 1019.3 1019.3 0.0
04/08:00am 14.5 11.5 5.8 56 4.1 WSW 11 17 6 9 1019.0 1019.0 0.0
04/07:30am 13.8 11.7 5.9 59 3.7 WSW 6 13 3 7 1018.5 1018.5 0.0
04/07:00am 13.5 11.3 5.4 58 3.8 WSW 6 11 3 6 1018.5 1018.5 0.0
04/06:30am 13.1 10.7 5.3 59 3.6 WNW 7 11 4 6 1018.3 1018.3 0.0
04/06:00am 12.9 10.5 5.1 59 3.6 WSW 7 15 4 8 1018.2 1018.2 0.0
04/05:30am 12.8 10.3 5.0 59 3.6 W 7 13 4 7 1018.0 1018.0 0.0
04/05:00am 12.6 10.1 4.8 59 3.6 W 7 13 4 7 1017.7 1017.7 0.0
04/04:30am 13.0 10.1 4.9 58 3.7 W 9 17 5 9 1017.5 1017.5 0.0
04/04:00am 13.3 10.5 5.2 58 3.8 WSW 9 19 5 10 1017.5 1017.5 0.0
04/03:30am 13.8 11.2 5.9 59 3.7 WSW 9 15 5 8 1017.7 1017.7 0.0
04/03:00am 14.0 11.6 7.1 63 3.4 WSW 9 20 5 11 1017.8 1017.8 0.0
04/02:30am 14.4 12.3 6.7 60 3.7 SSW 7 11 4 6 1017.8 1017.8 0.0
04/02:00am 14.4 12.6 7.9 65 3.2 S 7 15 4 8 1018.1 1018.1 0.0
04/01:30am 14.4 12.5 7.5 63 3.4 S 7 15 4 8 1018.3 1018.3 0.0
04/01:00am 14.3 13.0 7.6 64 3.3 S 4 9 2 5 1018.5 1018.5 0.0
04/12:30am 14.3 12.4 7.6 64 3.3 SSE 7 13 4 7 1018.6 1018.6 0.0
04/12:00am 14.0 12.1 7.5 65 3.2 SSE 7 11 4 6 1018.7 1018.7 0.0
 
Date/Time
EDT
Temp
°C
App
Temp
°C
Dew
Point
°C
Rel
Hum
%
Delta-T
°C
Wind Press
QNH
hPa
Press
MSL
hPa
Rain since
9am
mm
Dir  Spd
km/h
Gust
km/h
Spd
kts
Gust
kts
03/11:30pm 14.3 12.1 7.8 65 3.2 SSE 9 15 5 8 1018.7 1018.7 0.0
03/11:00pm 14.8 12.7 8.1 64 3.3 S 9 17 5 9 1018.9 1018.9 0.0
03/10:30pm 15.2 13.3 9.1 67 3.1 SSE 9 17 5 9 1018.9 1018.9 0.0
03/10:00pm 14.9 12.9 8.8 67 3.1 S 9 15 5 8 1018.9 1018.9 0.0
03/09:30pm 15.1 12.7 8.8 66 3.2 S 11 20 6 11 1018.8 1018.8 0.0
03/09:00pm 15.5 12.9 9.2 66 3.2 S 13 19 7 10 1019.0 1019.0 0.0
03/08:30pm 15.8 13.1 9.0 64 3.5 S 13 26 7 14 1019.1 1019.1 0.0
03/08:00pm 16.0 13.4 9.2 64 3.5 SSE 13 20 7 11 1018.8 1018.8 0.0
03/07:30pm 16.4 13.5 9.6 64 3.5 S 15 26 8 14 1018.8 1018.8 0.0
03/07:00pm 16.6 13.7 9.8 64 3.6 S 15 26 8 14 1018.7 1018.7 0.0
03/06:30pm 16.8 13.9 9.5 62 3.8 SSW 15 30 8 16 1018.4 1018.4 0.0
03/06:00pm 17.5 14.7 10.1 62 3.9 SSW 15 30 8 16 1018.2 1018.2 0.0
03/05:30pm 18.4 15.4 10.5 60 4.2 SSW 17 30 9 16 1017.9 1017.9 0.0
03/05:00pm 18.7 15.4 9.5 55 4.8 S 17 30 9 16 1017.8 1017.8 0.0
03/04:30pm 19.2 16.5 10.2 56 4.8 S 15 24 8 13 1018.2 1018.2 0.0
03/04:00pm 19.5 17.5 11.5 60 4.4 SSW 13 26 7 14 1018.3 1018.3 0.0
03/03:30pm 19.5 17.1 8.5 49 5.7 SSW 11 24 6 13 1018.7 1018.7 0.0
03/03:00pm 19.2 16.6 9.4 53 5.2 SSW 13 20 7 11 1018.7 1018.7 0.0
03/02:30pm 18.8 15.7 10.4 58 4.5 S 17 26 9 14 1018.8 1018.8 0.0
03/02:00pm 18.4 15.8 9.5 56 4.7 S 13 28 7 15 1018.9 1018.9 0.0
03/01:30pm 18.5 16.1 11.3 63 3.9 SSW 15 26 8 14 1019.0 1019.0 0.0
03/01:00pm 18.3 15.6 11.6 65 3.7 SSW 17 30 9 16 1019.6 1019.6 0.0
03/12:30pm 18.1 15.8 10.5 61 4.1 SSW 13 24 7 13 1019.7 1019.7 0.0
03/12:00pm 17.4 14.0 10.5 64 3.7 SSW 19 30 10 16 1020.0 1020.0 0.0
03/11:30am 17.9 15.9 11.5 66 3.5 SSW 13 19 7 10 1020.0 1020.0 0.0
03/11:00am 17.1 14.7 10.0 63 3.7 SSW 13 22 7 12 1020.0 1020.0 0.0
03/10:30am 16.4 13.8 9.3 63 3.7 SSW 13 24 7 13 1019.8 1019.8 0.0
03/10:00am 16.6 14.6 10.2 66 3.4 S 11 26 6 14 1019.9 1019.9 0.0
03/09:30am 16.5 14.2 10.4 67 3.2 S 13 20 7 11 1020.1 1020.1 0.0
03/09:00am 15.9 14.1 9.6 66 3.3 SSW 9 19 5 10 1020.0 1020.0 8.8
03/08:30am 16.0 14.2 9.4 65 3.4 SW 9 15 5 8 1019.6 1019.6 8.8
03/08:00am 15.1 13.5 8.8 66 3.2 WSW 7 13 4 7 1019.4 1019.4 8.8
03/07:30am 14.6 13.2 8.8 68 2.9 WSW 6 9 3 5 1019.1 1019.1 8.8
03/07:00am 13.7 12.1 8.1 69 2.8 WSW 6 11 3 6 1018.8 1018.8 8.8
03/06:30am 13.2 11.4 8.1 71 2.5 W 7 11 4 6 1018.7 1018.7 8.8
03/06:00am 13.3 11.8 8.4 72 2.4 WSW 6 11 3 6 1018.6 1018.6 8.8
03/05:30am 13.0 12.7 10.2 83 1.4 SSE 2 7 1 4 1018.3 1018.3 8.8
03/05:00am 13.2 12.3 9.3 77 2.0 S 4 7 2 4 1018.2 1018.2 8.8
03/04:30am 13.5 11.9 8.1 70 2.7 SSE 6 9 3 5 1018.0 1018.0 8.8
03/04:00am 13.7 11.5 7.9 68 2.9 S 9 17 5 9 1018.1 1018.1 8.8
03/03:30am 14.3 12.6 8.3 67 3.0 S 7 15 4 8 1018.2 1018.2 8.8
03/03:00am 14.7 12.6 8.4 66 3.2 SSW 9 17 5 9 1018.3 1018.3 8.8
03/02:30am 14.8 12.3 8.3 65 3.3 S 11 19 6 10 1018.4 1018.4 8.8
03/02:00am 14.8 12.9 9.0 68 2.9 S 9 19 5 10 1018.6 1018.6 8.8
03/01:30am 14.9 13.2 9.9 72 2.6 S 9 20 5 11 1018.8 1018.8 8.8
03/01:00am 14.7 12.7 10.3 75 2.3 S 11 20 6 11 1019.0 1019.0 8.8
03/12:30am 14.5 12.8 11.1 80 1.8 SSW 11 20 6 11 1019.2 1019.2 8.8
03/12:00am 14.0 11.7 11.9 87 1.1 SSW 15 26 8 14 1019.2 1019.2 8.8
 
Date/Time
EDT
Temp
°C
App
Temp
°C
Dew
Point
°C
Rel
Hum
%
Delta-T
°C
Wind Press
QNH
hPa
Press
MSL
hPa
Rain since
9am
mm
Dir  Spd
km/h
Gust
km/h
Spd
kts
Gust
kts
02/11:30pm 14.4 13.0 13.3 93 0.6 S 13 24 7 13 1019.0 1019.0 8.6
02/11:17pm 14.4 13.9 13.8 96 0.3 S 9 28 5 15 1018.8 1018.8 8.6
02/11:00pm 14.3 13.1 14.0 98 0.2 SSW 13 28 7 15 1018.7 1018.7 8.6
02/10:30pm 14.8 14.2 14.5 98 0.2 S 11 20 6 11 1018.5 1018.5 8.4
02/10:00pm 15.3 14.5 15.0 98 0.2 S 13 24 7 13 1018.0 1018.0 7.6
02/09:37pm 16.0 14.2 14.4 90 0.9 S 17 35 9 19 1017.3 1017.3 7.6
02/09:30pm 16.4 14.1 14.1 86 1.3 SSW 19 35 10 19 1017.0 1017.0 7.6
02/09:00pm 16.8 15.8 14.6 87 1.3 S 13 20 7 11 1016.7 1016.7 7.6
02/08:30pm 16.7 15.0 14.7 88 1.2 SSW 17 33 9 18 1016.0 1016.0 7.6
02/08:00pm 16.9 15.1 15.4 91 0.9 SSW 19 33 10 18 1015.1 1015.1 7.6
02/07:30pm 16.9 14.9 15.6 92 0.8 SSW 20 32 11 17 1014.4 1014.4 7.6
02/07:00pm 17.2 16.8 16.2 94 0.6 SW 13 28 7 15 1014.7 1014.7 7.6
02/06:53pm 17.2 16.4 16.1 93 0.7 SSW 15 28 8 15 1013.8 1013.8 7.6
02/06:30pm 18.4 18.7 17.8 96 0.4 SSW 13 20 7 11 1011.8 1011.8 7.6
02/06:00pm 19.0 20.4 17.8 93 0.7 NE 7 13 4 7 1011.4 1011.4 7.4
02/05:30pm 18.6 20.0 18.6 100 0.0 S 9 15 5 8 1010.7 1010.7 7.4
02/05:21pm 18.2 19.4 18.2 100 0.0 SSW 9 22 5 12 1011.4 1011.4 7.4
02/05:00pm 17.6 16.0 17.4 99 0.1 SW 22 39 12 21 1012.4 1012.4 6.8
02/04:59pm 17.6 15.9 17.3 98 0.2 SW 22 39 12 21 1012.5 1012.5 6.2
02/04:55pm 18.0 16.1 16.7 92 0.8 WSW 22 39 12 21 1014.7 1014.7 2.6
02/04:53pm 18.3 16.7 16.5 89 1.1 WSW 20 39 11 21 1014.7 1014.7 0.2
02/04:45pm 18.8 17.8 16.6 87 1.3 SW 17 33 9 18 1012.6 1012.6 0.0
02/04:30pm 20.4 21.2 16.4 78 2.4 SW 7 13 4 7 1010.5 1010.5 0.0
02/04:00pm 20.4 20.1 16.4 78 2.4 SSW 13 28 7 15 1010.6 1010.6 0.0
02/03:30pm 21.7 21.7 17.1 75 2.8 SSW 13 26 7 14 1010.4 1010.4 0.0

Latest Capital City Observations: Canberra | Sydney | Melbourne | Brisbane | Adelaide | Perth | Hobart | Darwin

Other formats

Comma delimited format used in spreadsheet applications
http://www.bom.gov.au/fwo/IDV60901/IDV60901.95936.axf

JavaScript Object Notation format (JSON) in row-major order
http://www.bom.gov.au/fwo/IDV60901/IDV60901.95936.json

Data quality

Most of these data are generated automatically and are frequently updated. Quality checks on data are not normally performed. It is possible for incorrect values to appear. Refer to information at About Latest Weather Observations and please check the disclaimer before using these data.